createdAt,value
2023-04-23T00:09:04.915Z,13.18
2023-04-23T00:10:03.413Z,13.16
2023-04-23T00:11:03.105Z,13.16
2023-04-23T00:12:03.874Z,13.17
2023-04-23T00:13:03.362Z,13.17
2023-04-23T00:14:05.180Z,13.17
2023-04-23T00:15:05.229Z,13.17
2023-04-23T00:16:03.524Z,13.16
2023-04-23T00:17:04.163Z,13.15
2023-04-23T00:18:03.507Z,13.14
2023-04-23T00:19:05.978Z,13.15
2023-04-23T00:20:03.206Z,13.15
2023-04-23T00:21:05.643Z,13.14
2023-04-23T00:22:03.933Z,13.17
2023-04-23T00:23:03.452Z,13.24
2023-04-23T00:24:05.322Z,13.29
2023-04-23T00:25:05.067Z,13.32
2023-04-23T00:26:03.241Z,13.33
2023-04-23T00:27:03.680Z,13.32
2023-04-23T00:28:03.404Z,13.32
2023-04-23T00:29:04.824Z,13.32
2023-04-23T00:30:03.853Z,13.31
2023-04-23T00:31:03.657Z,13.3
2023-04-23T00:32:03.312Z,13.3
2023-04-23T00:33:03.777Z,13.31
2023-04-23T00:34:04.053Z,13.31
2023-04-23T00:35:03.152Z,13.3
2023-04-23T00:36:03.920Z,13.27
2023-04-23T00:37:05.226Z,13.26
2023-04-23T00:38:03.568Z,13.26
2023-04-23T00:39:05.009Z,13.24
2023-04-23T00:40:03.998Z,13.3
2023-04-23T00:41:03.724Z,13.33
2023-04-23T00:42:03.260Z,13.35
2023-04-23T00:43:03.791Z,13.36
2023-04-23T00:44:03.946Z,13.38
2023-04-23T00:45:04.030Z,13.39
2023-04-23T00:46:03.645Z,13.36
2023-04-23T00:47:03.169Z,13.36
2023-04-23T00:48:03.732Z,13.34
2023-04-23T00:49:04.044Z,13.29
2023-04-23T00:50:03.219Z,13.24
2023-04-23T00:51:04.007Z,13.19
2023-04-23T00:52:03.606Z,13.12
2023-04-23T00:53:04.024Z,13.05
2023-04-23T00:54:03.592Z,12.97
2023-04-23T00:55:03.385Z,12.92
2023-04-23T00:56:03.870Z,12.89
2023-04-23T00:57:03.376Z,12.89
2023-04-23T00:58:03.872Z,12.87
2023-04-23T00:59:04.091Z,12.86
2023-04-23T01:00:05.048Z,12.85
2023-04-23T01:01:03.993Z,12.81
2023-04-23T01:02:04.224Z,12.78
2023-04-23T01:03:04.036Z,12.74
2023-04-23T01:04:05.317Z,12.73
2023-04-23T01:05:03.745Z,12.71
2023-04-23T01:06:03.606Z,12.66
2023-04-23T01:07:04.132Z,12.63
2023-04-23T01:08:05.601Z,12.6
2023-04-23T01:09:04.671Z,12.6
2023-04-23T01:10:05.366Z,12.59
2023-04-23T01:11:03.598Z,12.57
2023-04-23T01:12:03.947Z,12.56
2023-04-23T01:13:03.927Z,12.55
2023-04-23T01:14:03.729Z,12.53
2023-04-23T01:15:03.768Z,12.51
2023-04-23T01:16:03.700Z,12.52
2023-04-23T01:17:03.308Z,12.51
2023-04-23T01:18:03.855Z,12.51
2023-04-23T01:19:04.270Z,12.5
2023-04-23T01:20:03.710Z,12.5
2023-04-23T01:21:05.024Z,12.49
2023-04-23T01:22:03.215Z,12.48
2023-04-23T01:23:03.662Z,12.47
2023-04-23T01:24:03.908Z,12.46
2023-04-23T01:25:03.873Z,12.45
2023-04-23T01:26:03.490Z,12.44
2023-04-23T01:27:04.050Z,12.43
2023-04-23T01:28:03.637Z,12.42
2023-04-23T01:29:03.871Z,12.4
2023-04-23T01:30:04.256Z,12.38
2023-04-23T01:31:03.462Z,12.38
2023-04-23T01:32:04.106Z,12.37
2023-04-23T01:33:03.638Z,12.36
2023-04-23T01:34:05.715Z,12.34
2023-04-23T01:35:03.915Z,12.33
2023-04-23T01:36:03.637Z,12.3
2023-04-23T01:37:04.771Z,12.3
2023-04-23T01:38:04.000Z,12.27
2023-04-23T01:39:04.270Z,12.26
2023-04-23T01:40:03.190Z,12.25
2023-04-23T01:41:03.617Z,12.26
2023-04-23T01:42:03.509Z,12.25
2023-04-23T01:43:03.996Z,12.25
2023-04-23T01:44:06.612Z,12.25
2023-04-23T01:45:03.623Z,12.26
2023-04-23T01:46:03.194Z,12.26
2023-04-23T01:47:05.683Z,12.27
2023-04-23T01:48:03.425Z,12.29
2023-04-23T01:49:04.504Z,12.3
2023-04-23T01:50:03.532Z,12.3
2023-04-23T01:51:04.878Z,12.29
2023-04-23T01:52:04.137Z,12.29
2023-04-23T01:53:03.528Z,12.29
2023-04-23T01:54:05.818Z,12.27
2023-04-23T01:55:03.152Z,12.26
2023-04-23T01:56:05.404Z,12.25
2023-04-23T01:57:05.209Z,12.23
2023-04-23T01:58:03.543Z,12.22
2023-04-23T01:59:04.706Z,12.19
2023-04-23T02:00:03.092Z,12.17
2023-04-23T02:01:05.468Z,12.17
2023-04-23T02:02:03.857Z,12.16
2023-04-23T02:03:04.899Z,12.17
2023-04-23T02:04:03.523Z,12.16
2023-04-23T02:05:03.956Z,12.14
2023-04-23T02:06:03.791Z,12.14
2023-04-23T02:07:03.196Z,12.14
2023-04-23T02:08:03.990Z,12.12
2023-04-23T02:09:04.480Z,12.11
2023-04-23T02:10:03.341Z,12.08
2023-04-23T02:11:04.018Z,12.08
2023-04-23T02:12:03.697Z,12.07
2023-04-23T02:13:03.169Z,12.06
2023-04-23T02:14:05.949Z,12.04
2023-04-23T02:15:03.091Z,12.02
2023-04-23T02:16:04.290Z,12.01
2023-04-23T02:17:03.361Z,11.99
2023-04-23T02:18:03.941Z,11.96
2023-04-23T02:19:04.027Z,11.92
2023-04-23T02:20:03.313Z,11.91
2023-04-23T02:21:05.824Z,11.9
2023-04-23T02:22:04.079Z,11.89
2023-04-23T02:23:03.699Z,11.87
2023-04-23T02:24:06.687Z,11.86
2023-04-23T02:25:03.812Z,11.82
2023-04-23T02:26:05.059Z,11.78
2023-04-23T02:27:05.159Z,11.75
2023-04-23T02:28:03.217Z,11.74
2023-04-23T02:29:05.112Z,11.72
2023-04-23T02:30:05.315Z,11.7
2023-04-23T02:31:04.077Z,11.68
2023-04-23T02:32:03.446Z,11.67
2023-04-23T02:33:04.080Z,11.66
2023-04-23T02:34:05.848Z,11.64
2023-04-23T02:35:03.270Z,11.61
2023-04-23T02:36:03.694Z,11.62
2023-04-23T02:37:03.483Z,11.59
2023-04-23T02:38:03.996Z,11.57
2023-04-23T02:39:04.142Z,11.56
2023-04-23T02:40:03.699Z,11.55
2023-04-23T02:41:03.418Z,11.53
2023-04-23T02:42:03.940Z,11.52
2023-04-23T02:43:03.260Z,11.47
2023-04-23T02:44:04.902Z,11.45
2023-04-23T02:45:04.745Z,11.43
2023-04-23T02:46:04.046Z,11.41
2023-04-23T02:47:03.683Z,11.39
2023-04-23T02:48:04.187Z,11.37
2023-04-23T02:49:04.309Z,11.34
2023-04-23T02:50:05.397Z,11.33
2023-04-23T02:51:03.476Z,11.3
2023-04-23T02:52:04.065Z,11.3
2023-04-23T02:53:03.540Z,11.28
2023-04-23T02:54:03.737Z,11.25
2023-04-23T02:55:04.155Z,11.23
2023-04-23T02:56:04.040Z,11.24
2023-04-23T02:57:03.158Z,11.25
2023-04-23T02:58:03.749Z,11.25
2023-04-23T02:59:04.091Z,11.26
2023-04-23T03:00:03.483Z,11.26
2023-04-23T03:01:05.764Z,11.25
2023-04-23T03:02:04.571Z,11.23
2023-04-23T03:04:05.176Z,11.17
2023-04-23T03:05:03.140Z,11.15
2023-04-23T03:06:03.881Z,11.13
2023-04-23T03:07:03.384Z,11.12
2023-04-23T03:08:05.657Z,11.09
2023-04-23T03:09:04.960Z,11.07
2023-04-23T03:10:05.595Z,11.02
2023-04-23T03:11:03.749Z,11
2023-04-23T03:12:05.171Z,10.97
2023-04-23T03:13:03.248Z,10.94
2023-04-23T03:14:03.916Z,10.89
2023-04-23T03:15:05.722Z,10.86
2023-04-23T03:16:04.042Z,10.84
2023-04-23T03:17:03.691Z,10.82
2023-04-23T03:18:05.859Z,10.81
2023-04-23T03:19:06.691Z,10.8
2023-04-23T03:20:03.961Z,10.8
2023-04-23T03:21:03.359Z,10.8
2023-04-23T03:22:03.934Z,10.8
2023-04-23T03:23:05.162Z,10.8
2023-04-23T03:24:03.293Z,10.8
2023-04-23T03:25:03.703Z,10.8
2023-04-23T03:26:03.521Z,10.8
2023-04-23T03:27:05.951Z,10.81
2023-04-23T03:28:05.132Z,10.81
2023-04-23T03:29:07.629Z,10.82
2023-04-23T03:30:05.427Z,10.83
2023-04-23T03:31:03.791Z,10.84
2023-04-23T03:32:04.181Z,10.85
2023-04-23T03:33:08.541Z,10.86
2023-04-23T03:34:04.554Z,10.87
2023-04-23T03:35:03.342Z,10.88
2023-04-23T03:36:02.901Z,10.88
2023-04-23T03:37:03.636Z,10.89
2023-04-23T03:38:03.234Z,10.9
2023-04-23T03:39:04.896Z,10.9
2023-04-23T03:40:03.751Z,10.9
2023-04-23T03:41:05.090Z,10.92
2023-04-23T03:42:04.742Z,10.94
2023-04-23T03:43:03.962Z,10.94
2023-04-23T03:44:05.759Z,10.95
2023-04-23T03:45:03.036Z,10.95
2023-04-23T03:46:03.607Z,10.96
2023-04-23T03:47:03.467Z,10.97
2023-04-23T03:49:04.970Z,10.99
2023-04-23T03:50:03.765Z,11
2023-04-23T03:51:04.005Z,11
2023-04-23T03:52:03.409Z,11
2023-04-23T03:53:03.986Z,11
2023-04-23T03:54:04.324Z,11.01
2023-04-23T03:55:03.357Z,11.01
2023-04-23T03:56:03.691Z,11.01
2023-04-23T03:57:03.676Z,11.03
2023-04-23T03:58:03.056Z,11.03
2023-04-23T03:59:04.810Z,11.03
2023-04-23T04:00:05.598Z,11.03
2023-04-23T04:01:03.814Z,11.04
2023-04-23T04:02:03.363Z,11.03
2023-04-23T04:03:03.335Z,11.04
2023-04-23T04:04:04.830Z,11.04
2023-04-23T04:05:03.910Z,11.03
2023-04-23T04:06:03.083Z,11.02
2023-04-23T04:07:03.911Z,11.02
2023-04-23T04:08:03.342Z,11.01
2023-04-23T04:09:03.855Z,11.01
2023-04-23T04:10:04.016Z,11.01
2023-04-23T04:11:04.107Z,11.01
2023-04-23T04:12:03.637Z,11.02
2023-04-23T04:13:03.995Z,11.02
2023-04-23T04:14:04.254Z,11.02
2023-04-23T04:15:03.336Z,11.02
2023-04-23T04:16:03.484Z,11.01
2023-04-23T04:17:03.860Z,11.01
2023-04-23T04:18:03.515Z,11.01
2023-04-23T04:19:03.802Z,11.01
2023-04-23T04:20:03.337Z,11.02
2023-04-23T04:21:03.916Z,11.03
2023-04-23T04:22:03.575Z,11.04
2023-04-23T04:23:03.240Z,11.08
2023-04-23T04:24:06.737Z,11.12
2023-04-23T04:25:04.101Z,11.15
2023-04-23T04:26:03.701Z,11.19
2023-04-23T04:27:03.222Z,11.23
2023-04-23T04:28:03.823Z,11.27
2023-04-23T04:29:04.949Z,11.31
2023-04-23T04:30:03.415Z,11.34
2023-04-23T04:31:05.979Z,11.39
2023-04-23T04:32:05.723Z,11.42
2023-04-23T04:33:03.849Z,11.45
2023-04-23T04:34:04.712Z,11.49
2023-04-23T04:35:03.085Z,11.55
2023-04-23T04:36:03.960Z,11.59
2023-04-23T04:37:03.529Z,11.63
2023-04-23T04:38:04.887Z,11.69
2023-04-23T04:39:04.970Z,11.7
2023-04-23T04:40:03.175Z,11.76
2023-04-23T04:41:03.939Z,11.86
2023-04-23T04:42:04.085Z,11.88
2023-04-23T04:43:03.230Z,11.92
2023-04-23T04:44:04.490Z,11.93
2023-04-23T04:45:03.521Z,11.96
2023-04-23T04:46:05.951Z,11.96
2023-04-23T04:47:05.757Z,11.99
2023-04-23T04:48:03.744Z,12
2023-04-23T04:49:03.884Z,12.05
2023-04-23T04:50:03.185Z,12.06
2023-04-23T04:51:03.881Z,12.1
2023-04-23T04:52:05.199Z,12.11
2023-04-23T04:53:04.894Z,12.1
2023-04-23T04:54:04.763Z,12.13
2023-04-23T04:55:03.493Z,12.15
2023-04-23T04:56:05.424Z,12.16
2023-04-23T04:57:03.605Z,12.18
2023-04-23T04:58:03.320Z,12.18
2023-04-23T04:59:04.783Z,12.21
2023-04-23T05:00:03.703Z,12.25
2023-04-23T06:44:04.930Z,13.86
2023-04-23T06:45:05.926Z,13.88
2023-04-23T06:46:02.960Z,13.91
2023-04-23T06:47:03.692Z,13.92
2023-04-23T06:48:03.149Z,13.93
2023-04-23T06:49:05.018Z,13.96
2023-04-23T06:50:04.921Z,13.95
2023-04-23T06:51:03.242Z,13.97
2023-04-23T06:52:05.467Z,13.96
2023-04-23T06:53:03.780Z,13.96
2023-04-23T06:54:06.418Z,13.97
2023-04-23T06:55:03.544Z,13.96
2023-04-23T06:56:03.114Z,13.96
2023-04-23T06:57:03.573Z,13.95
2023-04-23T06:58:03.219Z,13.96
2023-04-23T06:59:04.722Z,13.96
2023-04-23T07:00:03.931Z,13.95
2023-04-23T07:01:05.333Z,13.93
2023-04-23T07:02:03.655Z,13.93
2023-04-23T07:03:05.593Z,13.95
2023-04-23T07:04:03.854Z,13.96
2023-04-23T07:05:03.401Z,13.97
2023-04-23T07:06:03.729Z,13.98
2023-04-23T07:07:04.976Z,13.98
2023-04-23T07:08:03.940Z,13.98
2023-04-23T07:09:04.215Z,13.97
2023-04-23T07:10:03.307Z,13.97
2023-04-23T07:11:03.965Z,13.97
2023-04-23T07:12:03.684Z,13.97
2023-04-23T07:13:03.488Z,13.99
2023-04-23T07:14:06.571Z,14.06
2023-04-23T07:15:03.543Z,14.08
2023-04-23T07:16:03.276Z,14.1
2023-04-23T07:17:04.469Z,14.12
2023-04-23T07:18:03.543Z,14.18
2023-04-23T07:19:03.933Z,14.23
2023-04-23T07:20:03.210Z,14.3
2023-04-23T07:21:03.929Z,14.39
2023-04-23T07:22:05.202Z,14.47
2023-04-23T07:23:03.629Z,14.53
2023-04-23T07:24:06.292Z,14.6
2023-04-23T07:25:03.258Z,14.66
2023-04-23T07:26:05.893Z,14.75
2023-04-23T07:27:03.248Z,14.84
2023-04-23T07:28:03.719Z,14.91
2023-04-23T07:29:04.321Z,14.92
2023-04-23T07:30:03.451Z,14.96
2023-04-23T07:31:05.803Z,15
2023-04-23T07:32:04.198Z,15
2023-04-23T07:33:03.738Z,15.04
2023-04-23T07:34:04.946Z,15.08
2023-04-23T07:35:03.947Z,15.09
2023-04-23T07:36:03.053Z,15.08
2023-04-23T07:37:03.771Z,15.06
2023-04-23T07:38:03.747Z,15.04
2023-04-23T07:39:09.348Z,15.06
2023-04-23T07:40:05.840Z,15.03
2023-04-23T07:41:04.154Z,14.99
2023-04-23T07:42:05.172Z,14.96
2023-04-23T07:43:02.767Z,14.91
2023-04-23T07:44:03.828Z,14.87
2023-04-23T07:45:03.852Z,14.84
2023-04-23T07:46:03.714Z,14.82
2023-04-23T07:47:04.921Z,14.8
2023-04-23T07:48:05.751Z,14.8
2023-04-23T07:49:04.763Z,14.79
2023-04-23T07:50:05.792Z,14.8
2023-04-23T07:51:03.954Z,14.83
2023-04-23T07:52:03.375Z,14.86
2023-04-23T07:53:03.190Z,14.88
2023-04-23T07:54:04.417Z,14.89
2023-04-23T07:55:03.157Z,14.85
2023-04-23T07:56:04.232Z,14.8
2023-04-23T07:57:03.420Z,14.79
2023-04-23T07:58:03.031Z,14.79
2023-04-23T07:59:04.352Z,14.8
2023-04-23T08:00:05.003Z,14.82
2023-04-23T08:01:03.096Z,14.83
2023-04-23T08:02:05.050Z,14.85
2023-04-23T08:03:03.349Z,14.85
2023-04-23T08:04:06.669Z,14.83
2023-04-23T08:05:03.448Z,14.79
2023-04-23T08:06:03.832Z,14.72
2023-04-23T08:07:03.694Z,14.7
2023-04-23T08:08:04.923Z,14.68
2023-04-23T08:09:04.548Z,14.67
2023-04-23T08:10:04.238Z,14.67
2023-04-23T08:11:03.376Z,14.63
2023-04-23T08:12:05.772Z,14.6
2023-04-23T08:13:05.706Z,14.62
2023-04-23T08:14:04.870Z,14.64
2023-04-23T08:15:05.320Z,14.67
2023-04-23T08:16:03.808Z,14.69
2023-04-23T08:17:04.286Z,14.72
2023-04-23T08:18:03.695Z,14.74
2023-04-23T08:19:06.059Z,14.74
2023-04-23T08:20:03.275Z,14.74
2023-04-23T08:21:03.960Z,14.73
2023-04-23T08:22:03.659Z,14.7
2023-04-23T08:23:03.369Z,14.68
2023-04-23T08:24:04.661Z,14.66
2023-04-23T08:25:05.372Z,14.65
2023-04-23T08:26:03.655Z,14.67
2023-04-23T08:27:03.391Z,14.72
2023-04-23T08:28:03.988Z,14.75
2023-04-23T08:29:04.255Z,14.77
2023-04-23T08:30:03.328Z,14.74
2023-04-23T08:31:15.110Z,14.71
2023-04-23T08:32:03.833Z,14.7
2023-04-23T08:33:03.328Z,14.68
2023-04-23T08:35:05.331Z,14.68
2023-04-23T08:36:05.294Z,14.69
2023-04-23T08:37:03.512Z,14.67
2023-04-23T08:38:04.128Z,14.63
2023-04-23T08:39:04.780Z,14.56
2023-04-23T08:40:03.776Z,14.51
2023-04-23T08:41:03.499Z,14.44
2023-04-23T08:42:03.446Z,14.42
2023-04-23T08:43:03.613Z,14.33
2023-04-23T08:44:03.618Z,14.29
2023-04-23T08:45:03.016Z,14.26
2023-04-23T08:46:03.515Z,14.2
2023-04-23T08:47:03.685Z,14.15
2023-04-23T08:48:03.131Z,14.1
2023-04-23T08:49:04.400Z,14.04
2023-04-23T08:50:03.644Z,13.97
2023-04-23T08:51:03.260Z,13.91
2023-04-23T08:52:04.246Z,13.86
2023-04-23T08:53:04.561Z,13.84
2023-04-23T08:54:03.993Z,13.83
2023-04-23T08:55:03.884Z,13.83
2023-04-23T08:56:03.625Z,13.79
2023-04-23T08:57:04.182Z,13.71
2023-04-23T08:58:03.690Z,13.64
2023-04-23T08:59:04.446Z,13.6
2023-04-23T09:00:03.553Z,13.52
2023-04-23T09:01:03.458Z,13.38
2023-04-23T09:02:03.879Z,13.27
2023-04-23T09:03:04.169Z,13.23
2023-04-23T09:04:16.171Z,13.1
2023-04-23T09:05:03.274Z,12.95
2023-04-23T09:06:03.272Z,12.81
2023-04-23T09:07:03.798Z,12.72
2023-04-23T09:08:03.669Z,12.65
2023-04-23T09:09:06.929Z,12.49
2023-04-23T09:10:03.285Z,12.4
2023-04-23T09:11:03.848Z,12.3
2023-04-23T09:12:05.060Z,12.16
2023-04-23T09:13:03.105Z,12.02
2023-04-23T09:14:04.191Z,12
2023-04-23T09:15:03.474Z,11.97
2023-04-23T09:16:03.449Z,11.97
2023-04-23T09:17:03.912Z,11.98
2023-04-23T09:18:03.436Z,11.98
2023-04-23T09:19:07.114Z,12
2023-04-23T09:20:03.397Z,11.92
2023-04-23T09:21:03.863Z,11.88
2023-04-23T09:22:03.591Z,11.81
2023-04-23T09:23:03.085Z,11.74
2023-04-23T09:24:04.472Z,11.7
2023-04-23T09:25:05.384Z,11.69
2023-04-23T09:26:05.260Z,11.69
2023-04-23T09:27:03.394Z,11.68
2023-04-23T09:28:04.073Z,11.66
2023-04-23T09:29:04.450Z,11.69
2023-04-23T09:30:03.641Z,11.69
2023-04-23T09:31:05.450Z,11.68
2023-04-23T09:32:03.910Z,11.69
2023-04-23T09:33:03.949Z,11.66
2023-04-23T09:34:05.049Z,11.59
2023-04-23T09:35:03.582Z,11.54
2023-04-23T09:36:03.209Z,11.49
2023-04-23T09:37:04.020Z,11.46
2023-04-23T09:38:03.471Z,11.46
2023-04-23T09:39:06.012Z,11.51
2023-04-23T09:40:03.295Z,11.53
2023-04-23T09:41:04.410Z,11.55
2023-04-23T09:42:03.823Z,11.56
2023-04-23T09:43:03.435Z,11.57
2023-04-23T09:44:05.672Z,11.59
2023-04-23T09:45:03.039Z,11.61
2023-04-23T09:46:03.794Z,11.69
2023-04-23T09:47:05.508Z,11.73
2023-04-23T09:48:03.329Z,11.75
2023-04-23T09:49:06.879Z,11.73
2023-04-23T09:50:03.436Z,11.7
2023-04-23T09:52:05.120Z,11.74
2023-04-23T09:53:02.997Z,11.78
2023-04-23T09:54:04.810Z,11.86
2023-04-23T09:55:03.429Z,11.9
2023-04-23T09:56:03.986Z,11.99
2023-04-23T09:57:03.589Z,12.08
2023-04-23T09:58:03.090Z,12.15
2023-04-23T09:59:06.080Z,12.25
2023-04-23T10:00:14.328Z,12.34
2023-04-23T10:01:03.192Z,12.43
2023-04-23T10:02:03.843Z,12.57
2023-04-23T10:03:03.865Z,12.69
2023-04-23T10:04:03.661Z,12.76
2023-04-23T10:05:21.455Z,12.82
2023-04-23T10:06:04.780Z,12.88
2023-04-23T10:08:03.804Z,13.04
2023-04-23T10:09:03.978Z,13.16
2023-04-23T10:10:03.255Z,13.25
2023-04-23T10:11:19.919Z,13.33
2023-04-23T10:12:05.517Z,13.45
2023-04-23T10:13:03.784Z,13.65
2023-04-23T10:14:03.918Z,13.82
2023-04-23T10:15:03.529Z,13.96
2023-04-23T10:16:18.237Z,14.11
2023-04-23T10:17:03.723Z,14.22
2023-04-23T10:18:03.295Z,14.28
2023-04-23T10:19:06.516Z,14.38
2023-04-23T10:20:03.632Z,14.43
2023-04-23T10:21:03.672Z,14.44
2023-04-23T10:22:18.188Z,14.54
2023-04-23T10:23:03.865Z,14.59
2023-04-23T10:24:04.135Z,14.66
2023-04-23T10:25:03.501Z,14.68
2023-04-23T10:26:03.893Z,14.7
2023-04-23T10:27:03.933Z,14.74
2023-04-23T10:28:03.451Z,14.71
2023-04-23T10:29:04.860Z,14.69
2023-04-23T10:30:06.233Z,14.73
2023-04-23T10:31:05.311Z,14.89
2023-04-23T10:32:03.550Z,15.04
2023-04-23T10:33:03.256Z,15.18
2023-04-23T10:34:04.613Z,15.34
2023-04-23T10:35:05.904Z,15.38
2023-04-23T10:36:04.151Z,15.39
2023-04-23T10:37:04.142Z,15.39
2023-04-23T10:38:03.354Z,15.43
2023-04-23T10:39:05.407Z,15.46
2023-04-23T10:40:04.833Z,15.44
2023-04-23T10:41:03.861Z,15.54
2023-04-23T10:42:03.570Z,15.7
2023-04-23T10:43:03.517Z,15.84
2023-04-23T10:44:04.463Z,15.99
2023-04-23T10:45:13.100Z,16.07
2023-04-23T10:46:03.441Z,16.16
2023-04-23T10:47:03.191Z,16.2
2023-04-23T10:48:03.788Z,16.24
2023-04-23T10:49:04.236Z,16.21
2023-04-23T10:50:02.916Z,16.17
2023-04-23T10:51:28.451Z,16.07
2023-04-23T10:52:18.034Z,16.03
2023-04-23T10:53:04.022Z,16.03
2023-04-23T10:54:03.842Z,16.01
2023-04-23T10:55:04.986Z,16.1
2023-04-23T10:56:05.721Z,16.14
2023-04-23T10:57:03.931Z,16.22
2023-04-23T10:58:05.076Z,16.33
2023-04-23T10:59:04.390Z,16.42
2023-04-23T11:00:03.331Z,16.49
2023-04-23T11:30:04.282Z,17.4
2023-04-23T11:31:03.772Z,17.4
2023-04-23T11:32:04.193Z,17.52
2023-04-23T11:33:04.215Z,17.65
2023-04-23T11:34:04.623Z,17.63
2023-04-23T11:35:04.595Z,17.52
2023-04-23T11:36:04.017Z,17.55
2023-04-23T11:37:03.631Z,17.49
2023-04-23T11:38:03.425Z,17.37
2023-04-23T11:39:04.766Z,17.39
2023-04-23T11:40:04.024Z,17.38
2023-04-23T11:41:03.595Z,17.3
2023-04-23T11:42:03.644Z,17.19
2023-04-23T11:43:04.134Z,17.08
2023-04-23T11:44:04.650Z,16.99
2023-04-23T11:45:03.962Z,16.89
2023-04-23T11:46:03.791Z,16.85
2023-04-23T11:47:04.175Z,16.88
2023-04-23T11:48:05.347Z,16.91
2023-04-23T11:49:06.188Z,16.91
2023-04-23T11:50:03.482Z,16.96
2023-04-23T11:51:03.864Z,17.01
2023-04-23T11:52:03.566Z,17.05
2023-04-23T11:53:03.972Z,17.05
2023-04-23T11:54:04.285Z,17.15
2023-04-23T11:55:03.057Z,17.18
2023-04-23T11:56:03.958Z,17.18
2023-04-23T11:57:03.305Z,17.18
2023-04-23T11:58:03.918Z,17.24
2023-04-23T11:59:04.867Z,17.41
2023-04-23T12:00:04.103Z,17.69
2023-04-23T12:01:03.753Z,17.94
2023-04-23T12:02:04.263Z,18.21
2023-04-23T12:03:03.783Z,18.33
2023-04-23T12:04:04.220Z,18.32
2023-04-23T12:05:05.125Z,18.34
2023-04-23T12:06:05.861Z,18.3
2023-04-23T12:07:10.216Z,18.28
2023-04-23T12:08:04.107Z,18.23
2023-04-23T12:09:04.282Z,18.18
2023-04-23T12:10:03.434Z,18.22
2023-04-23T12:11:05.583Z,18.41
2023-04-23T12:12:04.124Z,18.57
2023-04-23T12:13:03.045Z,18.73
2023-04-23T12:14:05.225Z,18.92
2023-04-23T12:15:03.193Z,18.98
2023-04-23T12:16:04.111Z,18.98
2023-04-23T12:17:05.254Z,18.98
2023-04-23T12:18:03.289Z,19.07
2023-04-23T12:19:04.949Z,19.09
2023-04-23T12:20:03.182Z,19.22
2023-04-23T12:21:03.687Z,19.36
2023-04-23T12:22:03.115Z,19.51
2023-04-23T12:23:03.768Z,19.47
2023-04-23T12:24:04.292Z,19.57
2023-04-23T12:25:03.299Z,19.69
2023-04-23T12:26:04.040Z,19.82
2023-04-23T12:27:03.623Z,19.91
2023-04-23T12:29:05.492Z,19.6
2023-04-23T12:30:06.422Z,19.41
2023-04-23T12:31:03.700Z,19.24
2023-04-23T12:32:03.298Z,19.21
2023-04-23T12:33:03.680Z,19.36
2023-04-23T12:34:04.168Z,19.48
2023-04-23T12:35:03.324Z,19.6
2023-04-23T12:36:03.184Z,19.71
2023-04-23T12:37:03.705Z,19.91
2023-04-23T12:38:03.170Z,20.05
2023-04-23T12:39:04.546Z,19.98
2023-04-23T12:40:03.585Z,19.92
2023-04-23T12:41:03.200Z,19.91
2023-04-23T12:42:03.863Z,19.76
2023-04-23T12:43:03.370Z,19.79
2023-04-23T12:44:04.753Z,19.94
2023-04-23T12:45:02.961Z,20.24
2023-04-23T12:46:03.500Z,20.35
2023-04-23T12:47:03.261Z,20.35
2023-04-23T12:48:03.334Z,20.41
2023-04-23T12:49:04.048Z,20.44
2023-04-23T12:50:03.117Z,20.54
2023-04-23T12:51:03.755Z,20.55
2023-04-23T12:52:03.176Z,20.65
2023-04-23T12:53:04.201Z,20.74
2023-04-23T12:54:04.392Z,20.87
2023-04-23T12:55:03.624Z,21.01
2023-04-23T12:56:03.328Z,21.05
2023-04-23T12:57:05.733Z,21.09
2023-04-23T12:58:03.686Z,21.18
2023-04-23T12:59:04.109Z,21.1
2023-04-23T13:00:03.087Z,20.98
2023-04-23T13:01:03.892Z,20.95
2023-04-23T13:02:03.978Z,20.92
2023-04-23T13:03:05.740Z,20.91
2023-04-23T13:04:04.771Z,20.88
2023-04-23T13:05:03.680Z,20.79
2023-04-23T13:06:03.245Z,20.81
2023-04-23T13:07:03.891Z,20.74
2023-04-23T13:08:04.967Z,20.65
2023-04-23T13:09:03.925Z,20.63
2023-04-23T13:10:02.918Z,20.58
2023-04-23T13:11:03.601Z,20.48
2023-04-23T13:12:03.010Z,20.39
2023-04-23T13:13:03.755Z,20.37
2023-04-23T13:14:03.573Z,20.49
2023-04-23T13:15:03.301Z,20.56
2023-04-23T13:16:03.864Z,20.77
2023-04-23T13:17:05.010Z,20.9
2023-04-23T13:18:04.324Z,20.98
2023-04-23T13:19:04.443Z,21.04
2023-04-23T13:20:03.356Z,21.06
2023-04-23T13:21:03.984Z,21.03
2023-04-23T13:22:03.432Z,21.14
2023-04-23T13:23:04.123Z,21.28
2023-04-23T13:24:04.609Z,21.28
2023-04-23T13:25:03.385Z,21.3
2023-04-23T13:26:04.103Z,21.34
2023-04-23T13:27:03.448Z,21.42
2023-04-23T13:28:03.987Z,21.53
2023-04-23T13:29:04.700Z,21.76
2023-04-23T13:30:03.352Z,21.82
2023-04-23T13:31:03.986Z,21.67
2023-04-23T13:32:03.708Z,21.52
2023-04-23T13:33:05.841Z,21.32
2023-04-23T13:34:04.729Z,21.07
2023-04-23T13:35:03.247Z,20.85
2023-04-23T13:36:04.146Z,20.71
2023-04-23T13:37:05.376Z,20.66
2023-04-23T13:38:05.007Z,20.61
2023-04-23T13:39:05.782Z,20.63
2023-04-23T13:40:03.062Z,20.64
2023-04-23T13:41:03.835Z,20.58
2023-04-23T13:42:09.454Z,20.59
2023-04-23T13:43:03.874Z,20.71
2023-04-23T13:44:05.716Z,20.87
2023-04-23T13:45:04.043Z,21.16
2023-04-23T13:46:03.665Z,21.38
2023-04-23T13:47:03.259Z,21.47
2023-04-23T13:48:03.775Z,21.4
2023-04-23T13:49:04.635Z,21.51
2023-04-23T13:50:03.687Z,21.74
2023-04-23T13:51:03.538Z,21.87
2023-04-23T13:52:04.063Z,21.77
2023-04-23T13:53:03.654Z,21.61
2023-04-23T13:54:03.568Z,21.45
2023-04-23T13:55:03.772Z,21.37
2023-04-23T13:56:03.536Z,21.32
2023-04-23T13:57:03.333Z,21.28
2023-04-23T13:58:03.891Z,21.37
2023-04-23T14:00:03.267Z,21.76
2023-04-23T14:01:04.200Z,21.99
2023-04-23T14:02:04.091Z,22.12
2023-04-23T14:03:03.606Z,22.22
2023-04-23T14:04:07.351Z,22.09
2023-04-23T14:05:04.873Z,21.95
2023-04-23T14:06:03.278Z,21.92
2023-04-23T14:07:03.242Z,21.93
2023-04-23T14:08:04.155Z,21.99
2023-04-23T14:09:04.725Z,22.04
2023-04-23T14:10:03.565Z,22.01
2023-04-23T14:11:04.171Z,21.95
2023-04-23T14:12:03.688Z,21.89
2023-04-23T14:13:03.233Z,21.78
2023-04-23T14:14:04.475Z,21.66
2023-04-23T14:15:03.387Z,21.55
2023-04-23T14:16:04.051Z,21.49
2023-04-23T14:17:03.632Z,21.54
2023-04-23T14:18:05.708Z,21.6
2023-04-23T14:19:04.389Z,21.64
2023-04-23T14:20:03.387Z,21.61
2023-04-23T14:21:03.987Z,21.35
2023-04-23T14:22:05.358Z,21.19
2023-04-23T14:23:03.221Z,21.16
2023-04-23T14:24:04.832Z,21.14
2023-04-23T14:25:03.717Z,21.11
2023-04-23T14:26:03.440Z,21.11
2023-04-23T14:27:05.683Z,21.15
2023-04-23T14:28:03.663Z,21.1
2023-04-23T14:29:03.686Z,21
2023-04-23T14:30:03.991Z,20.8
2023-04-23T14:31:05.314Z,20.71
2023-04-23T14:32:03.519Z,20.69
2023-04-23T14:33:04.094Z,20.58
2023-04-23T14:34:04.533Z,20.43
2023-04-23T14:35:03.213Z,20.29
2023-04-23T14:36:03.923Z,20.26
2023-04-23T14:37:05.175Z,20.32
2023-04-23T14:38:03.390Z,20.44
2023-04-23T14:39:06.201Z,20.65
2023-04-23T14:40:03.705Z,20.92
2023-04-23T14:42:05.183Z,20.98
2023-04-23T14:43:14.929Z,20.81
2023-04-23T14:44:03.904Z,20.81
2023-04-23T14:45:04.683Z,20.85
2023-04-23T14:46:03.882Z,20.93
2023-04-23T14:47:03.691Z,20.98
2023-04-23T14:48:03.049Z,21.02
2023-04-23T14:49:04.503Z,21.09
2023-04-23T14:50:03.274Z,21
2023-04-23T14:51:04.005Z,20.92
2023-04-23T14:52:03.628Z,20.85
2023-04-23T14:53:03.230Z,20.83
2023-04-23T14:54:04.496Z,20.81
2023-04-23T14:55:05.084Z,20.73
2023-04-23T14:56:03.214Z,20.69
2023-04-23T14:57:03.704Z,20.7
2023-04-23T14:58:03.544Z,20.79
2023-04-23T14:59:04.984Z,20.89
2023-04-23T15:00:03.292Z,20.94
2023-04-23T15:01:04.750Z,21
2023-04-23T15:02:04.215Z,21.05
2023-04-23T15:03:04.658Z,21.14
2023-04-23T15:04:05.004Z,21.14
2023-04-23T15:05:03.337Z,21.09
2023-04-23T15:06:03.201Z,21.06
2023-04-23T15:07:03.757Z,21.1
2023-04-23T15:08:03.446Z,21.08
2023-04-23T15:09:04.714Z,21.06
2023-04-23T15:10:03.695Z,21.05
2023-04-23T15:11:03.277Z,21.04
2023-04-23T15:12:04.018Z,21
2023-04-23T15:13:03.634Z,20.95
2023-04-23T15:14:05.625Z,20.96
2023-04-23T15:15:03.720Z,21.01
2023-04-23T15:16:03.584Z,21.05
2023-04-23T15:17:03.959Z,21.09
2023-04-23T15:18:03.731Z,21.05
2023-04-23T15:19:03.917Z,20.99
2023-04-23T15:20:02.993Z,20.9
2023-04-23T15:21:02.746Z,20.79
2023-04-23T15:22:03.713Z,20.73
2023-04-23T15:23:04.128Z,20.7
2023-04-23T15:24:04.435Z,20.66
2023-04-23T15:25:05.108Z,20.63